sensor_id;sensor_type;location;lat;lon;timestamp;P1;durP1;ratioP1;P2;durP2;ratioP2
12425;SDS011;6277;49.824;9.562;2023-10-13T00:01:33;6.60;;;3.42;;
12425;SDS011;6277;49.824;9.562;2023-10-13T00:03:59;4.25;;;2.83;;
12425;SDS011;6277;49.824;9.562;2023-10-13T00:06:26;3.30;;;2.47;;
12425;SDS011;6277;49.824;9.562;2023-10-13T00:08:52;5.05;;;2.78;;
12425;SDS011;6277;49.824;9.562;2023-10-13T00:11:18;5.15;;;3.08;;
12425;SDS011;6277;49.824;9.562;2023-10-13T00:13:44;4.38;;;2.80;;
12425;SDS011;6277;49.824;9.562;2023-10-13T00:16:19;4.32;;;2.70;;
12425;SDS011;6277;49.824;9.562;2023-10-13T00:18:52;4.43;;;2.58;;
12425;SDS011;6277;49.824;9.562;2023-10-13T00:21:22;4.05;;;2.50;;
12425;SDS011;6277;49.824;9.562;2023-10-13T00:23:58;4.05;;;2.70;;
12425;SDS011;6277;49.824;9.562;2023-10-13T00:26:31;4.80;;;2.80;;
12425;SDS011;6277;49.824;9.562;2023-10-13T00:29:01;3.70;;;2.63;;
12425;SDS011;6277;49.824;9.562;2023-10-13T00:31:39;4.47;;;2.45;;
12425;SDS011;6277;49.824;9.562;2023-10-13T00:34:08;5.25;;;2.75;;
12425;SDS011;6277;49.824;9.562;2023-10-13T00:36:52;5.20;;;2.75;;
12425;SDS011;6277;49.824;9.562;2023-10-13T00:39:44;5.40;;;2.85;;
12425;SDS011;6277;49.824;9.562;2023-10-13T00:42:10;4.57;;;2.40;;
12425;SDS011;6277;49.824;9.562;2023-10-13T00:44:44;5.47;;;2.70;;
12425;SDS011;6277;49.824;9.562;2023-10-13T00:47:13;4.65;;;2.97;;
12425;SDS011;6277;49.824;9.562;2023-10-13T00:50:02;6.07;;;3.00;;
12425;SDS011;6277;49.824;9.562;2023-10-13T00:52:28;4.45;;;2.90;;
12425;SDS011;6277;49.824;9.562;2023-10-13T00:54:55;4.85;;;2.90;;
12425;SDS011;6277;49.824;9.562;2023-10-13T00:57:25;5.90;;;2.80;;
12425;SDS011;6277;49.824;9.562;2023-10-13T00:59:57;6.25;;;3.05;;
12425;SDS011;6277;49.824;9.562;2023-10-13T01:02:22;6.05;;;3.10;;
12425;SDS011;6277;49.824;9.562;2023-10-13T01:05:01;6.07;;;3.03;;
12425;SDS011;6277;49.824;9.562;2023-10-13T01:07:28;5.15;;;3.33;;
12425;SDS011;6277;49.824;9.562;2023-10-13T01:09:53;6.35;;;2.95;;
12425;SDS011;6277;49.824;9.562;2023-10-13T01:12:20;5.38;;;2.63;;
12425;SDS011;6277;49.824;9.562;2023-10-13T01:14:48;4.28;;;3.03;;
12425;SDS011;6277;49.824;9.562;2023-10-13T01:17:14;6.32;;;3.72;;
12425;SDS011;6277;49.824;9.562;2023-10-13T01:19:40;7.45;;;3.05;;
12425;SDS011;6277;49.824;9.562;2023-10-13T01:22:10;5.78;;;3.22;;
12425;SDS011;6277;49.824;9.562;2023-10-13T01:24:36;4.90;;;3.00;;
12425;SDS011;6277;49.824;9.562;2023-10-13T01:27:02;2.85;;;2.58;;
12425;SDS011;6277;49.824;9.562;2023-10-13T01:29:48;5.03;;;3.08;;
12425;SDS011;6277;49.824;9.562;2023-10-13T01:32:16;4.03;;;2.78;;
12425;SDS011;6277;49.824;9.562;2023-10-13T01:34:44;5.28;;;2.65;;
12425;SDS011;6277;49.824;9.562;2023-10-13T01:37:12;4.50;;;2.97;;
12425;SDS011;6277;49.824;9.562;2023-10-13T01:39:40;5.63;;;3.35;;
12425;SDS011;6277;49.824;9.562;2023-10-13T01:42:06;5.10;;;2.78;;
12425;SDS011;6277;49.824;9.562;2023-10-13T01:44:32;6.03;;;2.97;;
12425;SDS011;6277;49.824;9.562;2023-10-13T01:46:58;5.60;;;2.90;;
12425;SDS011;6277;49.824;9.562;2023-10-13T01:49:26;5.63;;;2.90;;
12425;SDS011;6277;49.824;9.562;2023-10-13T01:51:52;5.25;;;2.88;;
12425;SDS011;6277;49.824;9.562;2023-10-13T01:54:17;4.70;;;2.63;;
12425;SDS011;6277;49.824;9.562;2023-10-13T01:56:46;5.40;;;3.05;;
12425;SDS011;6277;49.824;9.562;2023-10-13T01:59:13;4.85;;;2.80;;
12425;SDS011;6277;49.824;9.562;2023-10-13T02:01:40;6.00;;;2.65;;
12425;SDS011;6277;49.824;9.562;2023-10-13T02:04:07;5.53;;;3.03;;
12425;SDS011;6277;49.824;9.562;2023-10-13T02:06:35;4.55;;;2.78;;
12425;SDS011;6277;49.824;9.562;2023-10-13T02:09:05;5.07;;;2.88;;
12425;SDS011;6277;49.824;9.562;2023-10-13T02:11:38;4.53;;;2.90;;
12425;SDS011;6277;49.824;9.562;2023-10-13T02:14:04;4.60;;;2.67;;
12425;SDS011;6277;49.824;9.562;2023-10-13T02:16:30;6.65;;;2.92;;
12425;SDS011;6277;49.824;9.562;2023-10-13T02:18:56;4.57;;;2.90;;
12425;SDS011;6277;49.824;9.562;2023-10-13T02:21:33;3.95;;;2.58;;
12425;SDS011;6277;49.824;9.562;2023-10-13T02:24:06;5.43;;;2.80;;
12425;SDS011;6277;49.824;9.562;2023-10-13T02:26:38;4.20;;;2.83;;
12425;SDS011;6277;49.824;9.562;2023-10-13T02:29:05;6.22;;;2.92;;
12425;SDS011;6277;49.824;9.562;2023-10-13T02:31:37;6.35;;;3.35;;
12425;SDS011;6277;49.824;9.562;2023-10-13T02:34:03;6.30;;;3.10;;
12425;SDS011;6277;49.824;9.562;2023-10-13T02:36:33;5.22;;;3.30;;
12425;SDS011;6277;49.824;9.562;2023-10-13T02:39:06;4.85;;;2.75;;
12425;SDS011;6277;49.824;9.562;2023-10-13T02:41:34;5.15;;;3.10;;
12425;SDS011;6277;49.824;9.562;2023-10-13T02:44:04;4.93;;;2.72;;
12425;SDS011;6277;49.824;9.562;2023-10-13T02:46:35;4.88;;;2.58;;
12425;SDS011;6277;49.824;9.562;2023-10-13T02:49:04;4.00;;;2.72;;
12425;SDS011;6277;49.824;9.562;2023-10-13T02:51:39;5.60;;;2.85;;
12425;SDS011;6277;49.824;9.562;2023-10-13T02:54:08;3.50;;;3.00;;
12425;SDS011;6277;49.824;9.562;2023-10-13T02:56:43;3.03;;;2.42;;
12425;SDS011;6277;49.824;9.562;2023-10-13T02:59:22;3.58;;;2.50;;
12425;SDS011;6277;49.824;9.562;2023-10-13T03:02:05;4.30;;;2.40;;
12425;SDS011;6277;49.824;9.562;2023-10-13T03:04:46;3.25;;;2.10;;
12425;SDS011;6277;49.824;9.562;2023-10-13T03:07:12;2.90;;;2.60;;
12425;SDS011;6277;49.824;9.562;2023-10-13T03:09:40;3.40;;;2.60;;
12425;SDS011;6277;49.824;9.562;2023-10-13T03:12:15;5.07;;;3.05;;
12425;SDS011;6277;49.824;9.562;2023-10-13T03:14:40;6.50;;;3.00;;
12425;SDS011;6277;49.824;9.562;2023-10-13T03:17:06;4.78;;;3.10;;
12425;SDS011;6277;49.824;9.562;2023-10-13T03:19:41;6.32;;;3.00;;
12425;SDS011;6277;49.824;9.562;2023-10-13T03:22:11;4.00;;;2.63;;
12425;SDS011;6277;49.824;9.562;2023-10-13T03:24:38;4.03;;;2.70;;
12425;SDS011;6277;49.824;9.562;2023-10-13T03:27:10;5.35;;;2.72;;
12425;SDS011;6277;49.824;9.562;2023-10-13T03:29:37;4.22;;;3.10;;
12425;SDS011;6277;49.824;9.562;2023-10-13T03:32:13;5.28;;;2.72;;
12425;SDS011;6277;49.824;9.562;2023-10-13T03:34:43;2.75;;;2.30;;
12425;SDS011;6277;49.824;9.562;2023-10-13T03:37:25;4.10;;;2.70;;
12425;SDS011;6277;49.824;9.562;2023-10-13T03:40:03;6.55;;;2.17;;
12425;SDS011;6277;49.824;9.562;2023-10-13T03:42:48;5.13;;;2.60;;
12425;SDS011;6277;49.824;9.562;2023-10-13T03:45:32;3.13;;;2.72;;
12425;SDS011;6277;49.824;9.562;2023-10-13T03:48:04;5.93;;;3.08;;
12425;SDS011;6277;49.824;9.562;2023-10-13T03:50:34;4.57;;;2.70;;
12425;SDS011;6277;49.824;9.562;2023-10-13T03:53:01;4.88;;;2.83;;
12425;SDS011;6277;49.824;9.562;2023-10-13T03:55:28;4.22;;;3.03;;
12425;SDS011;6277;49.824;9.562;2023-10-13T03:57:54;4.63;;;3.20;;
12425;SDS011;6277;49.824;9.562;2023-10-13T04:00:23;3.30;;;2.78;;
12425;SDS011;6277;49.824;9.562;2023-10-13T04:02:50;3.92;;;3.05;;
12425;SDS011;6277;49.824;9.562;2023-10-13T04:05:31;4.20;;;3.45;;
12425;SDS011;6277;49.824;9.562;2023-10-13T04:08:03;4.15;;;3.10;;
12425;SDS011;6277;49.824;9.562;2023-10-13T04:10:52;3.97;;;2.78;;
12425;SDS011;6277;49.824;9.562;2023-10-13T04:13:18;5.70;;;3.20;;
12425;SDS011;6277;49.824;9.562;2023-10-13T04:15:45;4.43;;;3.00;;
12425;SDS011;6277;49.824;9.562;2023-10-13T04:18:29;3.92;;;3.08;;
12425;SDS011;6277;49.824;9.562;2023-10-13T04:20:59;4.25;;;2.65;;
12425;SDS011;6277;49.824;9.562;2023-10-13T04:23:43;3.55;;;2.67;;
12425;SDS011;6277;49.824;9.562;2023-10-13T04:26:28;5.50;;;3.15;;
12425;SDS011;6277;49.824;9.562;2023-10-13T04:29:02;5.13;;;3.38;;
12425;SDS011;6277;49.824;9.562;2023-10-13T04:31:35;5.20;;;2.70;;
12425;SDS011;6277;49.824;9.562;2023-10-13T04:34:24;5.95;;;2.75;;
12425;SDS011;6277;49.824;9.562;2023-10-13T04:36:59;4.85;;;3.17;;
12425;SDS011;6277;49.824;9.562;2023-10-13T04:39:44;3.83;;;2.97;;
12425;SDS011;6277;49.824;9.562;2023-10-13T04:42:10;4.18;;;3.17;;
12425;SDS011;6277;49.824;9.562;2023-10-13T04:44:51;5.32;;;3.08;;
12425;SDS011;6277;49.824;9.562;2023-10-13T04:47:21;5.85;;;3.50;;
12425;SDS011;6277;49.824;9.562;2023-10-13T04:49:47;4.38;;;3.08;;
12425;SDS011;6277;49.824;9.562;2023-10-13T04:52:12;4.03;;;2.53;;
12425;SDS011;6277;49.824;9.562;2023-10-13T04:54:52;4.72;;;2.75;;
12425;SDS011;6277;49.824;9.562;2023-10-13T04:57:24;4.90;;;3.28;;
12425;SDS011;6277;49.824;9.562;2023-10-13T04:59:59;5.22;;;2.83;;
12425;SDS011;6277;49.824;9.562;2023-10-13T05:02:36;6.18;;;3.00;;
12425;SDS011;6277;49.824;9.562;2023-10-13T05:05:06;4.55;;;3.20;;
12425;SDS011;6277;49.824;9.562;2023-10-13T05:07:51;6.72;;;3.58;;
12425;SDS011;6277;49.824;9.562;2023-10-13T05:10:36;6.43;;;3.90;;
12425;SDS011;6277;49.824;9.562;2023-10-13T05:13:21;7.05;;;3.75;;
12425;SDS011;6277;49.824;9.562;2023-10-13T05:16:05;8.75;;;3.60;;
12425;SDS011;6277;49.824;9.562;2023-10-13T05:18:49;6.55;;;3.50;;
12425;SDS011;6277;49.824;9.562;2023-10-13T05:24:17;5.53;;;3.20;;
12425;SDS011;6277;49.824;9.562;2023-10-13T05:29:56;4.22;;;3.15;;
12425;SDS011;6277;49.824;9.562;2023-10-13T05:32:41;5.70;;;3.15;;
12425;SDS011;6277;49.824;9.562;2023-10-13T05:38:09;6.65;;;3.50;;
12425;SDS011;6277;49.824;9.562;2023-10-13T05:43:41;5.30;;;3.38;;
12425;SDS011;6277;49.824;9.562;2023-10-13T05:46:25;5.50;;;3.20;;
12425;SDS011;6277;49.824;9.562;2023-10-13T05:48:51;5.30;;;3.70;;
12425;SDS011;6277;49.824;9.562;2023-10-13T05:51:23;8.02;;;3.97;;
12425;SDS011;6277;49.824;9.562;2023-10-13T05:54:08;6.20;;;4.28;;
12425;SDS011;6277;49.824;9.562;2023-10-13T05:56:41;6.80;;;4.45;;
12425;SDS011;6277;49.824;9.562;2023-10-13T05:59:26;6.90;;;4.05;;
12425;SDS011;6277;49.824;9.562;2023-10-13T06:02:11;7.45;;;4.47;;
12425;SDS011;6277;49.824;9.562;2023-10-13T06:04:56;5.97;;;4.05;;
12425;SDS011;6277;49.824;9.562;2023-10-13T06:07:40;6.10;;;4.20;;
12425;SDS011;6277;49.824;9.562;2023-10-13T06:10:24;7.43;;;4.10;;
12425;SDS011;6277;49.824;9.562;2023-10-13T06:13:09;7.40;;;3.97;;
12425;SDS011;6277;49.824;9.562;2023-10-13T06:15:53;7.03;;;3.95;;
12425;SDS011;6277;49.824;9.562;2023-10-13T06:18:37;6.05;;;4.32;;
12425;SDS011;6277;49.824;9.562;2023-10-13T06:21:21;7.57;;;4.10;;
12425;SDS011;6277;49.824;9.562;2023-10-13T06:24:06;5.95;;;3.67;;
12425;SDS011;6277;49.824;9.562;2023-10-13T06:26:50;4.43;;;3.45;;
12425;SDS011;6277;49.824;9.562;2023-10-13T06:29:34;6.00;;;4.30;;
12425;SDS011;6277;49.824;9.562;2023-10-13T06:32:00;7.38;;;3.97;;
12425;SDS011;6277;49.824;9.562;2023-10-13T06:34:29;6.60;;;4.38;;
12425;SDS011;6277;49.824;9.562;2023-10-13T06:39:51;5.75;;;3.70;;
12425;SDS011;6277;49.824;9.562;2023-10-13T06:42:40;5.20;;;3.60;;
12425;SDS011;6277;49.824;9.562;2023-10-13T06:45:09;7.57;;;3.65;;
12425;SDS011;6277;49.824;9.562;2023-10-13T06:47:36;4.93;;;3.65;;
12425;SDS011;6277;49.824;9.562;2023-10-13T06:50:11;7.20;;;4.03;;
12425;SDS011;6277;49.824;9.562;2023-10-13T06:52:41;5.38;;;3.75;;
12425;SDS011;6277;49.824;9.562;2023-10-13T06:55:07;7.00;;;4.03;;
12425;SDS011;6277;49.824;9.562;2023-10-13T06:57:35;6.38;;;3.85;;
12425;SDS011;6277;49.824;9.562;2023-10-13T07:00:01;6.75;;;4.70;;
12425;SDS011;6277;49.824;9.562;2023-10-13T07:02:32;7.30;;;4.07;;
12425;SDS011;6277;49.824;9.562;2023-10-13T07:04:59;7.18;;;4.07;;
12425;SDS011;6277;49.824;9.562;2023-10-13T07:07:38;6.70;;;4.10;;
12425;SDS011;6277;49.824;9.562;2023-10-13T07:10:08;7.13;;;4.20;;
12425;SDS011;6277;49.824;9.562;2023-10-13T07:12:34;5.53;;;3.83;;
12425;SDS011;6277;49.824;9.562;2023-10-13T07:15:00;5.07;;;3.75;;
12425;SDS011;6277;49.824;9.562;2023-10-13T07:17:43;5.15;;;3.70;;
12425;SDS011;6277;49.824;9.562;2023-10-13T07:20:10;5.95;;;3.55;;
12425;SDS011;6277;49.824;9.562;2023-10-13T07:22:49;4.78;;;3.40;;
12425;SDS011;6277;49.824;9.562;2023-10-13T07:25:31;6.20;;;4.15;;
12425;SDS011;6277;49.824;9.562;2023-10-13T07:28:05;5.78;;;3.90;;
12425;SDS011;6277;49.824;9.562;2023-10-13T07:30:34;5.68;;;4.18;;
12425;SDS011;6277;49.824;9.562;2023-10-13T07:33:27;5.97;;;3.92;;
12425;SDS011;6277;49.824;9.562;2023-10-13T07:38:40;7.05;;;4.03;;
12425;SDS011;6277;49.824;9.562;2023-10-13T07:41:13;7.07;;;4.00;;
12425;SDS011;6277;49.824;9.562;2023-10-13T07:43:42;6.63;;;3.97;;
12425;SDS011;6277;49.824;9.562;2023-10-13T07:46:09;5.97;;;3.50;;
12425;SDS011;6277;49.824;9.562;2023-10-13T07:48:37;3.90;;;3.00;;
12425;SDS011;6277;49.824;9.562;2023-10-13T07:51:06;6.10;;;3.92;;
12425;SDS011;6277;49.824;9.562;2023-10-13T07:53:42;6.40;;;3.85;;
12425;SDS011;6277;49.824;9.562;2023-10-13T07:56:13;5.10;;;3.33;;
12425;SDS011;6277;49.824;9.562;2023-10-13T07:58:43;4.75;;;3.35;;
12425;SDS011;6277;49.824;9.562;2023-10-13T08:01:17;4.07;;;3.15;;
12425;SDS011;6277;49.824;9.562;2023-10-13T08:03:46;7.03;;;3.88;;
12425;SDS011;6277;49.824;9.562;2023-10-13T08:06:16;5.90;;;3.58;;
12425;SDS011;6277;49.824;9.562;2023-10-13T08:08:42;5.75;;;3.40;;
12425;SDS011;6277;49.824;9.562;2023-10-13T08:11:15;6.30;;;3.45;;
12425;SDS011;6277;49.824;9.562;2023-10-13T08:13:51;5.15;;;3.25;;
12425;SDS011;6277;49.824;9.562;2023-10-13T08:16:41;4.97;;;3.05;;
12425;SDS011;6277;49.824;9.562;2023-10-13T08:19:22;5.43;;;3.03;;
12425;SDS011;6277;49.824;9.562;2023-10-13T08:22:09;4.68;;;3.22;;
12425;SDS011;6277;49.824;9.562;2023-10-13T08:24:44;5.88;;;3.53;;
12425;SDS011;6277;49.824;9.562;2023-10-13T08:27:12;5.95;;;3.05;;
12425;SDS011;6277;49.824;9.562;2023-10-13T08:29:57;5.32;;;3.00;;
12425;SDS011;6277;49.824;9.562;2023-10-13T08:32:26;4.40;;;3.50;;
12425;SDS011;6277;49.824;9.562;2023-10-13T08:34:57;5.32;;;3.40;;
12425;SDS011;6277;49.824;9.562;2023-10-13T08:37:23;5.50;;;3.55;;
12425;SDS011;6277;49.824;9.562;2023-10-13T08:39:50;5.47;;;3.10;;
12425;SDS011;6277;49.824;9.562;2023-10-13T08:42:29;4.82;;;3.30;;
12425;SDS011;6277;49.824;9.562;2023-10-13T08:47:48;5.03;;;3.00;;
12425;SDS011;6277;49.824;9.562;2023-10-13T08:50:42;4.38;;;3.10;;
12425;SDS011;6277;49.824;9.562;2023-10-13T08:58:39;6.47;;;3.72;;
12425;SDS011;6277;49.824;9.562;2023-10-13T09:01:30;5.85;;;3.13;;
12425;SDS011;6277;49.824;9.562;2023-10-13T09:04:19;4.78;;;3.00;;
12425;SDS011;6277;49.824;9.562;2023-10-13T09:09:32;4.47;;;2.78;;
12425;SDS011;6277;49.824;9.562;2023-10-13T09:14:54;3.75;;;2.95;;
12425;SDS011;6277;49.824;9.562;2023-10-13T09:17:24;4.97;;;3.38;;
12425;SDS011;6277;49.824;9.562;2023-10-13T09:20:04;5.05;;;3.20;;
12425;SDS011;6277;49.824;9.562;2023-10-13T09:22:55;5.40;;;2.85;;
12425;SDS011;6277;49.824;9.562;2023-10-13T09:25:28;6.63;;;3.08;;
12425;SDS011;6277;49.824;9.562;2023-10-13T09:28:10;5.88;;;3.22;;
12425;SDS011;6277;49.824;9.562;2023-10-13T09:30:50;3.20;;;2.80;;
12425;SDS011;6277;49.824;9.562;2023-10-13T09:33:31;5.60;;;3.50;;
12425;SDS011;6277;49.824;9.562;2023-10-13T09:36:05;5.55;;;2.70;;
12425;SDS011;6277;49.824;9.562;2023-10-13T09:38:38;4.55;;;2.90;;
12425;SDS011;6277;49.824;9.562;2023-10-13T09:41:13;5.18;;;2.80;;
12425;SDS011;6277;49.824;9.562;2023-10-13T09:43:46;6.03;;;3.10;;
12425;SDS011;6277;49.824;9.562;2023-10-13T09:46:14;4.18;;;3.10;;
12425;SDS011;6277;49.824;9.562;2023-10-13T09:48:44;4.07;;;3.20;;
12425;SDS011;6277;49.824;9.562;2023-10-13T09:51:21;5.82;;;3.13;;
12425;SDS011;6277;49.824;9.562;2023-10-13T09:54:02;5.15;;;2.95;;
12425;SDS011;6277;49.824;9.562;2023-10-13T09:56:49;5.22;;;3.10;;
12425;SDS011;6277;49.824;9.562;2023-10-13T09:59:21;4.82;;;2.97;;
12425;SDS011;6277;49.824;9.562;2023-10-13T10:01:50;5.30;;;2.85;;
12425;SDS011;6277;49.824;9.562;2023-10-13T10:04:23;3.92;;;2.45;;
12425;SDS011;6277;49.824;9.562;2023-10-13T10:09:28;2.80;;;2.20;;
12425;SDS011;6277;49.824;9.562;2023-10-13T10:12:07;4.50;;;2.38;;
12425;SDS011;6277;49.824;9.562;2023-10-13T10:17:45;4.88;;;2.60;;
12425;SDS011;6277;49.824;9.562;2023-10-13T10:20:13;3.45;;;2.75;;
12425;SDS011;6277;49.824;9.562;2023-10-13T10:22:58;4.32;;;2.50;;
12425;SDS011;6277;49.824;9.562;2023-10-13T10:25:34;4.10;;;2.60;;
12425;SDS011;6277;49.824;9.562;2023-10-13T10:28:04;3.92;;;2.85;;
12425;SDS011;6277;49.824;9.562;2023-10-13T10:30:32;4.88;;;2.65;;
12425;SDS011;6277;49.824;9.562;2023-10-13T10:32:59;4.35;;;2.20;;
12425;SDS011;6277;49.824;9.562;2023-10-13T10:35:26;3.72;;;2.47;;
12425;SDS011;6277;49.824;9.562;2023-10-13T10:38:16;4.85;;;2.38;;
12425;SDS011;6277;49.824;9.562;2023-10-13T10:46:17;6.05;;;2.35;;
12425;SDS011;6277;49.824;9.562;2023-10-13T10:48:50;4.30;;;2.20;;
12425;SDS011;6277;49.824;9.562;2023-10-13T10:51:21;3.67;;;2.50;;
12425;SDS011;6277;49.824;9.562;2023-10-13T10:53:50;4.57;;;2.30;;
12425;SDS011;6277;49.824;9.562;2023-10-13T10:56:24;4.00;;;2.60;;
12425;SDS011;6277;49.824;9.562;2023-10-13T10:59:01;6.90;;;2.15;;
12425;SDS011;6277;49.824;9.562;2023-10-13T11:01:32;3.53;;;2.08;;
12425;SDS011;6277;49.824;9.562;2023-10-13T11:04:11;4.32;;;2.17;;
12425;SDS011;6277;49.824;9.562;2023-10-13T11:06:47;4.53;;;2.80;;
12425;SDS011;6277;49.824;9.562;2023-10-13T11:09:14;3.33;;;2.33;;
12425;SDS011;6277;49.824;9.562;2023-10-13T11:11:55;3.38;;;2.38;;
12425;SDS011;6277;49.824;9.562;2023-10-13T11:14:28;3.60;;;2.28;;
12425;SDS011;6277;49.824;9.562;2023-10-13T11:16:55;2.90;;;2.35;;
12425;SDS011;6277;49.824;9.562;2023-10-13T11:19:42;2.50;;;2.10;;
12425;SDS011;6277;49.824;9.562;2023-10-13T11:25:04;3.92;;;1.90;;
12425;SDS011;6277;49.824;9.562;2023-10-13T11:27:37;3.63;;;2.00;;
12425;SDS011;6277;49.824;9.562;2023-10-13T11:30:16;4.10;;;2.13;;
12425;SDS011;6277;49.824;9.562;2023-10-13T11:32:59;4.82;;;2.50;;
12425;SDS011;6277;49.824;9.562;2023-10-13T11:35:30;3.17;;;2.08;;
12425;SDS011;6277;49.824;9.562;2023-10-13T11:38:14;2.72;;;2.00;;
12425;SDS011;6277;49.824;9.562;2023-10-13T11:40:50;3.83;;;2.30;;
12425;SDS011;6277;49.824;9.562;2023-10-13T11:43:34;3.30;;;2.30;;
12425;SDS011;6277;49.824;9.562;2023-10-13T11:46:16;3.95;;;2.20;;
12425;SDS011;6277;49.824;9.562;2023-10-13T11:49:00;4.00;;;2.20;;
12425;SDS011;6277;49.824;9.562;2023-10-13T11:51:50;3.75;;;2.20;;
12425;SDS011;6277;49.824;9.562;2023-10-13T11:54:20;3.50;;;2.17;;
12425;SDS011;6277;49.824;9.562;2023-10-13T11:56:48;3.08;;;2.03;;
12425;SDS011;6277;49.824;9.562;2023-10-13T11:59:14;3.45;;;2.10;;
12425;SDS011;6277;49.824;9.562;2023-10-13T12:01:46;3.33;;;2.45;;
12425;SDS011;6277;49.824;9.562;2023-10-13T12:04:31;3.80;;;2.22;;
12425;SDS011;6277;49.824;9.562;2023-10-13T12:07:14;2.60;;;2.13;;
12425;SDS011;6277;49.824;9.562;2023-10-13T12:09:42;5.20;;;2.40;;
12425;SDS011;6277;49.824;9.562;2023-10-13T12:12:28;3.33;;;2.20;;
12425;SDS011;6277;49.824;9.562;2023-10-13T12:14:55;3.65;;;2.17;;
12425;SDS011;6277;49.824;9.562;2023-10-13T12:17:25;3.22;;;2.40;;
12425;SDS011;6277;49.824;9.562;2023-10-13T12:20:03;3.58;;;2.47;;
12425;SDS011;6277;49.824;9.562;2023-10-13T12:22:36;2.55;;;2.25;;
12425;SDS011;6277;49.824;9.562;2023-10-13T12:25:10;3.28;;;2.33;;
12425;SDS011;6277;49.824;9.562;2023-10-13T12:28:11;5.10;;;2.17;;
12425;SDS011;6277;49.824;9.562;2023-10-13T12:30:46;5.57;;;2.28;;
12425;SDS011;6277;49.824;9.562;2023-10-13T12:33:17;4.40;;;2.30;;
12425;SDS011;6277;49.824;9.562;2023-10-13T12:35:59;3.53;;;2.10;;
12425;SDS011;6277;49.824;9.562;2023-10-13T12:38:31;4.70;;;2.20;;
12425;SDS011;6277;49.824;9.562;2023-10-13T12:41:15;6.35;;;2.58;;
12425;SDS011;6277;49.824;9.562;2023-10-13T12:44:00;3.85;;;2.28;;
12425;SDS011;6277;49.824;9.562;2023-10-13T12:46:44;3.10;;;2.00;;
12425;SDS011;6277;49.824;9.562;2023-10-13T12:49:28;3.00;;;2.13;;
12425;SDS011;6277;49.824;9.562;2023-10-13T12:52:05;3.50;;;2.13;;
12425;SDS011;6277;49.824;9.562;2023-10-13T12:54:41;2.85;;;2.08;;
12425;SDS011;6277;49.824;9.562;2023-10-13T12:57:11;3.33;;;2.30;;
12425;SDS011;6277;49.824;9.562;2023-10-13T12:59:38;4.10;;;2.10;;
12425;SDS011;6277;49.824;9.562;2023-10-13T13:02:04;3.88;;;1.83;;
12425;SDS011;6277;49.824;9.562;2023-10-13T13:04:32;2.20;;;1.73;;
12425;SDS011;6277;49.824;9.562;2023-10-13T13:07:02;3.40;;;2.10;;
12425;SDS011;6277;49.824;9.562;2023-10-13T13:09:31;2.50;;;2.10;;
12425;SDS011;6277;49.824;9.562;2023-10-13T13:11:56;5.75;;;2.47;;
12425;SDS011;6277;49.824;9.562;2023-10-13T13:14:25;2.95;;;2.05;;
12425;SDS011;6277;49.824;9.562;2023-10-13T13:16:54;4.10;;;2.17;;
12425;SDS011;6277;49.824;9.562;2023-10-13T13:19:29;3.47;;;2.00;;
12425;SDS011;6277;49.824;9.562;2023-10-13T13:21:58;2.50;;;1.80;;
12425;SDS011;6277;49.824;9.562;2023-10-13T13:24:24;4.80;;;2.00;;
12425;SDS011;6277;49.824;9.562;2023-10-13T13:26:54;2.70;;;1.83;;
12425;SDS011;6277;49.824;9.562;2023-10-13T13:29:29;3.70;;;2.00;;
12425;SDS011;6277;49.824;9.562;2023-10-13T13:31:55;3.22;;;2.03;;
12425;SDS011;6277;49.824;9.562;2023-10-13T13:34:21;3.17;;;1.73;;
12425;SDS011;6277;49.824;9.562;2023-10-13T13:36:47;4.75;;;2.10;;
12425;SDS011;6277;49.824;9.562;2023-10-13T13:39:17;5.70;;;2.13;;
12425;SDS011;6277;49.824;9.562;2023-10-13T13:41:56;2.85;;;1.85;;
12425;SDS011;6277;49.824;9.562;2023-10-13T13:44:24;2.67;;;2.00;;
12425;SDS011;6277;49.824;9.562;2023-10-13T13:47:01;3.42;;;2.10;;
12425;SDS011;6277;49.824;9.562;2023-10-13T13:49:37;2.78;;;2.00;;
12425;SDS011;6277;49.824;9.562;2023-10-13T13:52:06;3.67;;;2.00;;
12425;SDS011;6277;49.824;9.562;2023-10-13T13:54:32;4.55;;;2.20;;
12425;SDS011;6277;49.824;9.562;2023-10-13T13:56:58;4.55;;;1.95;;
12425;SDS011;6277;49.824;9.562;2023-10-13T13:59:23;4.80;;;2.22;;
12425;SDS011;6277;49.824;9.562;2023-10-13T14:01:49;3.63;;;1.85;;
12425;SDS011;6277;49.824;9.562;2023-10-13T14:04:17;3.35;;;1.80;;
12425;SDS011;6277;49.824;9.562;2023-10-13T14:06:44;3.47;;;1.85;;
12425;SDS011;6277;49.824;9.562;2023-10-13T14:09:10;2.72;;;1.95;;
12425;SDS011;6277;49.824;9.562;2023-10-13T14:11:55;4.35;;;2.05;;
12425;SDS011;6277;49.824;9.562;2023-10-13T14:17:14;5.30;;;2.10;;
12425;SDS011;6277;49.824;9.562;2023-10-13T14:19:39;4.78;;;2.03;;
12425;SDS011;6277;49.824;9.562;2023-10-13T14:22:10;3.50;;;2.10;;
12425;SDS011;6277;49.824;9.562;2023-10-13T14:24:37;2.60;;;1.80;;
12425;SDS011;6277;49.824;9.562;2023-10-13T14:27:11;4.68;;;2.13;;
12425;SDS011;6277;49.824;9.562;2023-10-13T14:29:44;2.65;;;1.40;;
12425;SDS011;6277;49.824;9.562;2023-10-13T14:32:10;3.10;;;1.83;;
12425;SDS011;6277;49.824;9.562;2023-10-13T14:34:41;2.72;;;1.60;;
12425;SDS011;6277;49.824;9.562;2023-10-13T14:37:08;3.63;;;2.00;;
12425;SDS011;6277;49.824;9.562;2023-10-13T14:39:37;3.00;;;1.90;;
12425;SDS011;6277;49.824;9.562;2023-10-13T14:42:04;5.20;;;2.15;;
12425;SDS011;6277;49.824;9.562;2023-10-13T14:44:33;4.20;;;1.95;;
12425;SDS011;6277;49.824;9.562;2023-10-13T14:46:59;4.15;;;1.95;;
12425;SDS011;6277;49.824;9.562;2023-10-13T14:49:30;3.22;;;1.77;;
12425;SDS011;6277;49.824;9.562;2023-10-13T14:51:56;2.25;;;1.63;;
12425;SDS011;6277;49.824;9.562;2023-10-13T14:54:24;3.85;;;2.00;;
12425;SDS011;6277;49.824;9.562;2023-10-13T14:56:58;2.90;;;1.63;;
12425;SDS011;6277;49.824;9.562;2023-10-13T14:59:27;3.60;;;1.77;;
12425;SDS011;6277;49.824;9.562;2023-10-13T15:01:57;2.65;;;1.50;;
12425;SDS011;6277;49.824;9.562;2023-10-13T15:04:24;4.22;;;2.00;;
12425;SDS011;6277;49.824;9.562;2023-10-13T15:06:50;3.60;;;1.60;;
12425;SDS011;6277;49.824;9.562;2023-10-13T15:09:15;2.50;;;1.63;;
12425;SDS011;6277;49.824;9.562;2023-10-13T15:11:48;4.13;;;1.73;;
12425;SDS011;6277;49.824;9.562;2023-10-13T15:14:17;3.40;;;1.90;;
12425;SDS011;6277;49.824;9.562;2023-10-13T15:16:45;3.55;;;2.03;;
12425;SDS011;6277;49.824;9.562;2023-10-13T15:19:11;2.88;;;1.88;;
12425;SDS011;6277;49.824;9.562;2023-10-13T15:21:37;5.85;;;2.25;;
12425;SDS011;6277;49.824;9.562;2023-10-13T15:24:05;3.00;;;1.85;;
12425;SDS011;6277;49.824;9.562;2023-10-13T15:26:50;2.47;;;1.80;;
12425;SDS011;6277;49.824;9.562;2023-10-13T15:29:22;3.63;;;1.70;;
12425;SDS011;6277;49.824;9.562;2023-10-13T15:31:51;3.75;;;1.95;;
12425;SDS011;6277;49.824;9.562;2023-10-13T15:34:23;3.17;;;1.60;;
12425;SDS011;6277;49.824;9.562;2023-10-13T15:36:51;3.42;;;1.92;;
12425;SDS011;6277;49.824;9.562;2023-10-13T15:39:17;2.67;;;1.60;;
12425;SDS011;6277;49.824;9.562;2023-10-13T15:41:48;2.65;;;1.63;;
12425;SDS011;6277;49.824;9.562;2023-10-13T15:44:23;3.47;;;1.77;;
12425;SDS011;6277;49.824;9.562;2023-10-13T15:46:53;3.20;;;1.92;;
12425;SDS011;6277;49.824;9.562;2023-10-13T15:49:20;4.30;;;1.67;;
12425;SDS011;6277;49.824;9.562;2023-10-13T15:51:46;4.20;;;2.00;;
12425;SDS011;6277;49.824;9.562;2023-10-13T15:54:11;3.05;;;2.08;;
12425;SDS011;6277;49.824;9.562;2023-10-13T15:56:46;4.55;;;1.83;;
12425;SDS011;6277;49.824;9.562;2023-10-13T15:59:13;3.30;;;1.67;;
12425;SDS011;6277;49.824;9.562;2023-10-13T16:01:39;2.35;;;1.55;;
12425;SDS011;6277;49.824;9.562;2023-10-13T16:04:05;4.75;;;1.40;;
12425;SDS011;6277;49.824;9.562;2023-10-13T16:06:42;3.08;;;1.90;;
12425;SDS011;6277;49.824;9.562;2023-10-13T16:09:12;2.70;;;1.90;;
12425;SDS011;6277;49.824;9.562;2023-10-13T16:11:44;3.75;;;1.80;;
12425;SDS011;6277;49.824;9.562;2023-10-13T16:14:11;3.78;;;1.85;;
12425;SDS011;6277;49.824;9.562;2023-10-13T16:16:42;4.40;;;2.10;;
12425;SDS011;6277;49.824;9.562;2023-10-13T16:19:15;4.55;;;1.80;;
12425;SDS011;6277;49.824;9.562;2023-10-13T16:21:48;3.38;;;1.60;;
12425;SDS011;6277;49.824;9.562;2023-10-13T16:24:14;5.35;;;2.00;;